Terminal Aerodrome Forecast
Issued by NWS

Current Version | Previous Version | Text Only | Print | Product List | Glossary On
Versions: 1 2 3 4 5 6 7 8 9 10 11 12 13 14
329
FTUS43 KICT 102324
TAFSLN
TAF
KSLN 102324Z 1100/1124 31008KT P6SM SKC
     FM111000 01008KT P6SM BKN015
     FM111500 01006KT P6SM BKN025
     FM111700 VRB05KT P6SM SCT035
     FM112100 19005KT P6SM SCT250=

USA.gov is the U.S. government's official web portal to all federal, state and local government web resources and services.